This is the latest recevied weather packets stored in our database for station/object JG6YPS-13. If no packets are shown the sender has not sent any weather packets the latest 10 day(s).
| Time | Temp. | Humidity | Pressure | Rain* | Wind** | Luminosity | Snow |
|---|---|---|---|---|---|---|---|
| 1777936041 | 14.44° C | 73% | 1020.9 hPa | 0 mm | - | - | - |
| 1777935442 | 14.44° C | 73% | 1020.7 hPa | 0 mm | - | - | - |
| 1777934842 | 14.44° C | 72% | 1020.7 hPa | 0 mm | - | - | - |
| 1777934243 | 13.33° C | 76% | 1020.6 hPa | 0 mm | - | - | - |
| 1777933643 | 12.78° C | 77% | 1020.7 hPa | 0 mm | - | - | - |
| 1777933044 | 12.22° C | 78% | 1020.7 hPa | 0 mm | - | - | - |
| 1777932445 | 12.22° C | 78% | 1020.6 hPa | 0 mm | - | - | - |
| 1777931846 | 13.33° C | 73% | 1020.4 hPa | 0 mm | - | - | - |
| 1777931246 | 12.78° C | 81% | 1020.5 hPa | 0 mm | - | - | - |
| 1777930647 | 10.56° C | 83% | 1020.4 hPa | 0 mm | - | - | - |
| 1777930048 | 10.56° C | 82% | 1020.4 hPa | 0 mm | - | - | - |
| 1777929449 | 9.44° C | 90% | 1020.4 hPa | 0 mm | - | - | - |
| 1777928850 | 8.33° C | 89% | 1020.4 hPa | 0 mm | - | - | - |
| 1777928252 | 7.78° C | 88% | 1020.5 hPa | 0 mm | - | - | - |
| 1777927653 | 7.78° C | 87% | 1020.3 hPa | 0 mm | - | - | - |
| 1777927054 | 8.33° C | 87% | 1020 hPa | 0 mm | - | - | - |
| 1777926455 | 7.78° C | 87% | 1019.9 hPa | 0 mm | - | - | - |
| 1777925856 | 7.78° C | 87% | 1019.7 hPa | 0 mm | - | - | - |
| 1777925257 | 7.78° C | 87% | 1019.7 hPa | 0 mm | - | - | - |
| 1777924658 | 8.33° C | 87% | 1019.8 hPa | 0 mm | - | - | - |
| 1777924059 | 8.33° C | 85% | 1019.7 hPa | 0 mm | - | - | - |
| 1777923460 | 8.89° C | 86% | 1019.7 hPa | 0 mm | - | - | - |
| 1777922861 | 8.89° C | 87% | 1019.6 hPa | 0 mm | - | - | - |
| 1777922262 | 8.89° C | 87% | 1019.5 hPa | 0 mm | - | - | - |
| 1777921663 | 8.33° C | 88% | 1019.5 hPa | 0 mm | - | - | - |
* Rain latest hour (hover to see other rain measurements)
** Current wind speed in m/s (hover to see current wind gust speed)